createdAt,value
2023-01-29T00:01:20.523Z,18.42
2023-01-29T00:03:50.087Z,18.25
2023-01-29T00:06:18.475Z,19.23
2023-01-29T00:08:45.143Z,19.05
2023-01-29T00:11:26.263Z,18.10
2023-01-29T00:13:53.214Z,18.10
2023-01-29T00:16:20.352Z,18.20
2023-01-29T00:18:54.291Z,18.83
2023-01-29T00:21:23.174Z,18.23
2023-01-29T00:23:56.301Z,17.67
2023-01-29T00:26:23.225Z,16.38
2023-01-29T00:28:49.872Z,17.63
2023-01-29T00:31:18.194Z,15.68
2023-01-29T00:33:45.485Z,17.15
2023-01-29T00:36:13.811Z,17.05
2023-01-29T00:38:41.800Z,17.75
2023-01-29T00:41:09.684Z,15.98
2023-01-29T00:43:36.305Z,17.42
2023-01-29T00:46:02.967Z,18.17
2023-01-29T00:48:29.652Z,16.33
2023-01-29T00:50:56.226Z,17.23
2023-01-29T00:53:22.856Z,16.88
2023-01-29T00:55:50.844Z,17.05
2023-01-29T00:58:17.507Z,17.42
2023-01-29T01:00:44.704Z,17.13
2023-01-29T01:03:11.498Z,18.42
2023-01-29T01:05:38.188Z,17.38
2023-01-29T01:08:05.199Z,17.77
2023-01-29T01:10:33.115Z,18.73
2023-01-29T01:13:03.568Z,18.10
2023-01-29T01:15:31.620Z,17.13
2023-01-29T01:17:59.877Z,17.90
2023-01-29T01:20:28.457Z,18.25
2023-01-29T01:22:55.785Z,11.98
2023-01-29T01:25:22.919Z,8.75
2023-01-29T01:27:52.600Z,9.10
2023-01-29T01:32:47.301Z,9.35
2023-01-29T01:35:13.958Z,8.55
2023-01-29T01:37:41.290Z,8.75
2023-01-29T01:40:13.084Z,8.18
2023-01-29T01:42:40.064Z,8.00
2023-01-29T01:45:17.707Z,8.05
2023-01-29T01:47:48.963Z,8.82
2023-01-29T01:50:20.526Z,8.55
2023-01-29T01:52:51.183Z,8.55
2023-01-29T01:55:21.680Z,8.70
2023-01-29T01:57:52.696Z,8.18
2023-01-29T02:00:21.438Z,8.68
2023-01-29T02:02:49.449Z,7.80
2023-01-29T02:05:16.041Z,8.95
2023-01-29T02:07:44.628Z,8.52
2023-01-29T02:10:16.050Z,7.60
2023-01-29T02:12:44.915Z,7.78
2023-01-29T02:15:12.774Z,7.35
2023-01-29T02:17:39.797Z,6.97
2023-01-29T02:20:18.197Z,7.05
2023-01-29T02:23:20.957Z,8.05
2023-01-29T02:26:33.477Z,6.95
2023-01-29T02:29:07.110Z,7.28
2023-01-29T02:31:42.695Z,6.63
2023-01-29T02:34:18.554Z,7.03
2023-01-29T02:36:48.576Z,6.57
2023-01-29T02:39:23.442Z,6.63
2023-01-29T02:41:59.913Z,6.20
2023-01-29T02:44:35.476Z,6.57
2023-01-29T02:47:08.662Z,6.15
2023-01-29T02:49:43.384Z,6.65
2023-01-29T02:52:17.950Z,6.25
2023-01-29T02:54:49.510Z,6.35
2023-01-29T02:57:19.730Z,6.45
2023-01-29T02:59:54.868Z,5.95
2023-01-29T03:02:29.112Z,6.20
2023-01-29T03:05:01.564Z,6.53
2023-01-29T03:07:35.124Z,6.20
2023-01-29T03:10:04.687Z,6.10
2023-01-29T03:12:34.339Z,5.97
2023-01-29T03:17:37.835Z,6.20
2023-01-29T03:20:08.642Z,6.68
2023-01-29T03:22:37.350Z,6.10
2023-01-29T03:25:06.429Z,5.82
2023-01-29T03:27:38.530Z,6.75
2023-01-29T03:30:10.989Z,6.65
2023-01-29T03:32:38.323Z,5.95
2023-01-29T03:35:08.263Z,7.70
2023-01-29T03:37:38.675Z,6.57
2023-01-29T03:40:08.316Z,6.50
2023-01-29T03:45:16.264Z,5.75
2023-01-29T03:47:46.991Z,6.28
2023-01-29T03:50:30.707Z,6.65
2023-01-29T03:53:07.052Z,6.20
2023-01-29T03:55:40.301Z,6.00
2023-01-29T03:58:16.199Z,5.63
2023-01-29T04:00:53.479Z,5.43
2023-01-29T04:03:24.037Z,5.50
2023-01-29T04:05:54.210Z,5.50
2023-01-29T04:08:38.235Z,5.35
2023-01-29T04:11:12.519Z,5.20
2023-01-29T04:13:40.011Z,5.25
2023-01-29T04:16:13.282Z,6.07
2023-01-29T04:18:39.964Z,5.78
2023-01-29T04:21:06.626Z,5.53
2023-01-29T04:23:33.384Z,5.45
2023-01-29T04:26:21.916Z,5.70
2023-01-29T04:28:58.958Z,6.03
2023-01-29T04:34:11.105Z,5.13
2023-01-29T04:36:47.814Z,5.38
2023-01-29T04:39:20.700Z,5.03
2023-01-29T04:41:54.128Z,5.55
2023-01-29T04:44:26.224Z,5.65
2023-01-29T04:47:04.613Z,5.57
2023-01-29T04:49:36.005Z,5.40
2023-01-29T04:52:09.341Z,5.95
2023-01-29T04:54:47.304Z,5.03
2023-01-29T04:57:18.488Z,5.38
2023-01-29T04:59:50.744Z,5.32
2023-01-29T05:02:20.966Z,5.13
2023-01-29T05:04:49.135Z,5.15
2023-01-29T05:07:17.725Z,5.68
2023-01-29T05:09:47.227Z,5.40
2023-01-29T05:12:15.998Z,5.25
2023-01-29T05:14:44.878Z,5.13
2023-01-29T05:17:16.010Z,5.18
2023-01-29T05:19:44.608Z,4.82
2023-01-29T05:22:15.997Z,5.03
2023-01-29T05:24:42.578Z,5.30
2023-01-29T05:27:15.073Z,5.18
2023-01-29T05:29:46.123Z,5.05
2023-01-29T05:37:07.538Z,4.80
2023-01-29T05:39:34.227Z,5.03
2023-01-29T05:42:00.891Z,5.43
2023-01-29T05:44:27.538Z,5.07
2023-01-29T05:46:54.217Z,5.00
2023-01-29T05:49:21.041Z,5.18
2023-01-29T05:51:47.671Z,4.78
2023-01-29T05:54:15.782Z,4.72
2023-01-29T05:56:42.373Z,4.43
2023-01-29T05:59:08.972Z,5.00
2023-01-29T06:01:36.081Z,4.90
2023-01-29T06:04:02.839Z,5.00
2023-01-29T06:06:29.431Z,5.43
2023-01-29T06:08:56.337Z,5.68
2023-01-29T06:11:24.688Z,5.40
2023-01-29T06:13:51.344Z,4.93
2023-01-29T06:16:18.063Z,4.65
2023-01-29T06:18:44.686Z,5.20
2023-01-29T06:21:13.315Z,4.90
2023-01-29T06:23:40.302Z,5.32
2023-01-29T06:26:10.244Z,5.60
2023-01-29T06:28:38.499Z,5.45
2023-01-29T06:33:53.652Z,5.32
2023-01-29T06:36:20.324Z,5.70
2023-01-29T06:38:46.926Z,5.28
2023-01-29T06:41:16.806Z,5.20
2023-01-29T06:43:46.012Z,5.60
2023-01-29T06:46:12.939Z,6.07
2023-01-29T06:48:39.627Z,5.50
2023-01-29T06:51:08.235Z,5.43
2023-01-29T06:53:38.227Z,5.80
2023-01-29T06:56:05.988Z,5.72
2023-01-29T06:58:32.634Z,5.50
2023-01-29T07:01:05.093Z,5.57
2023-01-29T07:03:31.908Z,5.53
2023-01-29T07:05:58.667Z,5.63
2023-01-29T07:08:25.374Z,5.38
2023-01-29T07:10:52.019Z,5.30
2023-01-29T07:13:18.637Z,5.78
2023-01-29T07:15:45.285Z,5.68
2023-01-29T07:18:13.269Z,5.78
2023-01-29T07:20:41.408Z,5.45
2023-01-29T07:23:12.023Z,5.50
2023-01-29T07:25:38.973Z,5.32
2023-01-29T07:28:05.818Z,5.63
2023-01-29T07:30:32.485Z,5.32
2023-01-29T07:33:01.901Z,5.20
2023-01-29T07:35:29.981Z,5.15
2023-01-29T07:37:56.651Z,5.32
2023-01-29T07:40:23.339Z,5.60
2023-01-29T07:42:49.951Z,5.35
2023-01-29T07:45:16.796Z,5.43
2023-01-29T07:47:43.415Z,5.82
2023-01-29T07:50:11.097Z,5.38
2023-01-29T07:52:39.058Z,5.38
2023-01-29T07:55:06.547Z,5.35
2023-01-29T07:57:33.180Z,5.32
2023-01-29T07:59:59.814Z,5.63
2023-01-29T08:02:26.505Z,5.43
2023-01-29T08:04:53.187Z,5.95
2023-01-29T08:07:19.811Z,5.80
2023-01-29T08:09:48.276Z,5.72
2023-01-29T08:12:14.945Z,5.70
2023-01-29T08:14:41.609Z,5.72
2023-01-29T08:17:08.220Z,6.40
2023-01-29T08:19:34.862Z,6.50
2023-01-29T08:22:01.461Z,6.07
2023-01-29T08:24:36.072Z,5.88
2023-01-29T08:27:15.887Z,6.25
2023-01-29T08:29:42.518Z,6.18
2023-01-29T08:32:10.025Z,6.18
2023-01-29T08:34:36.793Z,6.35
2023-01-29T08:37:03.546Z,6.00
2023-01-29T08:39:30.206Z,6.05
2023-01-29T08:41:56.800Z,6.40
2023-01-29T08:44:24.770Z,5.88
2023-01-29T08:46:51.347Z,6.38
2023-01-29T08:49:18.021Z,6.07
2023-01-29T08:51:44.645Z,6.45
2023-01-29T08:54:11.253Z,6.07
2023-01-29T08:56:38.061Z,6.45
2023-01-29T08:59:04.703Z,6.60
2023-01-29T09:01:32.799Z,5.70
2023-01-29T09:03:59.605Z,6.20
2023-01-29T09:06:26.326Z,6.60
2023-01-29T09:08:54.014Z,6.50
2023-01-29T09:11:20.614Z,6.45
2023-01-29T09:16:39.191Z,7.10
2023-01-29T09:19:05.848Z,6.97
2023-01-29T09:21:32.485Z,6.47
2023-01-29T09:23:59.198Z,7.45
2023-01-29T09:26:25.879Z,7.00
2023-01-29T09:28:52.519Z,6.68
2023-01-29T09:31:19.261Z,6.72
2023-01-29T09:33:47.626Z,6.90
2023-01-29T09:36:14.292Z,7.03
2023-01-29T09:38:40.872Z,7.13
2023-01-29T09:41:20.142Z,6.40
2023-01-29T09:43:51.309Z,6.60
2023-01-29T09:46:23.424Z,7.45
2023-01-29T09:49:09.167Z,7.68
2023-01-29T09:51:40.769Z,7.28
2023-01-29T09:54:18.731Z,7.15
2023-01-29T09:56:46.605Z,6.80
2023-01-29T09:59:16.142Z,6.70
2023-01-29T10:01:53.393Z,6.80
2023-01-29T10:04:52.586Z,7.38
2023-01-29T10:07:44.051Z,6.95
2023-01-29T10:10:22.577Z,8.27
2023-01-29T10:13:02.849Z,8.90
2023-01-29T10:15:42.184Z,9.00
2023-01-29T10:18:33.446Z,8.77
2023-01-29T10:21:16.887Z,8.60
2023-01-29T10:23:47.960Z,8.57
2023-01-29T10:26:15.074Z,8.70
2023-01-29T10:28:43.803Z,8.45
2023-01-29T10:31:15.855Z,8.17
2023-01-29T10:34:02.790Z,8.45
2023-01-29T10:36:38.594Z,8.80
2023-01-29T10:39:05.409Z,8.70
2023-01-29T10:41:48.364Z,8.50
2023-01-29T10:44:26.711Z,8.73
2023-01-29T10:47:18.743Z,8.60
2023-01-29T10:50:06.289Z,8.52
2023-01-29T10:52:49.221Z,9.52
2023-01-29T10:55:32.743Z,8.35
2023-01-29T10:58:08.256Z,8.75
2023-01-29T11:00:38.123Z,9.65
2023-01-29T11:03:26.822Z,9.10
2023-01-29T11:06:12.575Z,8.75
2023-01-29T11:08:46.669Z,8.27
2023-01-29T11:11:15.031Z,8.35
2023-01-29T11:13:45.846Z,8.55
2023-01-29T11:16:12.646Z,8.32
2023-01-29T11:18:53.268Z,8.27
2023-01-29T11:21:19.982Z,8.70
2023-01-29T11:23:48.685Z,8.73
2023-01-29T11:26:19.712Z,8.80
2023-01-29T11:28:48.561Z,9.77
2023-01-29T11:31:17.424Z,9.13
2023-01-29T11:33:45.420Z,9.02
2023-01-29T11:36:29.486Z,8.85
2023-01-29T11:39:14.891Z,8.43
2023-01-29T11:41:47.480Z,8.73
2023-01-29T11:44:32.445Z,8.45
2023-01-29T11:47:12.015Z,9.20
2023-01-29T11:49:41.160Z,8.60
2023-01-29T11:52:10.594Z,9.15
2023-01-29T11:54:44.412Z,10.13
2023-01-29T11:57:30.274Z,9.93
2023-01-29T11:59:59.537Z,10.88
2023-01-29T12:02:34.804Z,10.07
2023-01-29T12:05:04.825Z,9.75
2023-01-29T12:07:32.411Z,10.10
2023-01-29T12:10:00.465Z,10.68
2023-01-29T12:12:30.544Z,10.45
2023-01-29T12:15:06.487Z,10.75
2023-01-29T12:17:39.565Z,10.23
2023-01-29T12:20:14.282Z,10.45
2023-01-29T12:22:45.627Z,9.65
2023-01-29T12:25:22.260Z,9.95
2023-01-29T12:27:56.045Z,9.48
2023-01-29T12:30:29.159Z,10.95
2023-01-29T12:33:02.628Z,9.63
2023-01-29T12:35:31.945Z,9.77
2023-01-29T12:38:03.319Z,10.55
2023-01-29T12:40:34.957Z,9.52
2023-01-29T12:43:11.689Z,9.43
2023-01-29T12:45:39.335Z,9.15
2023-01-29T12:48:11.134Z,8.60
2023-01-29T12:50:39.589Z,8.73
2023-01-29T12:53:11.660Z,9.15
2023-01-29T12:55:45.037Z,8.20
2023-01-29T12:58:16.042Z,8.40
2023-01-29T13:00:45.726Z,9.18
2023-01-29T13:05:48.634Z,8.85
2023-01-29T13:08:20.786Z,8.40
2023-01-29T13:10:50.888Z,8.55
2023-01-29T13:13:24.874Z,9.40
2023-01-29T13:15:53.012Z,12.38
2023-01-29T13:18:43.808Z,9.45
2023-01-29T13:21:14.906Z,9.32
2023-01-29T13:23:45.123Z,9.50
2023-01-29T13:26:17.516Z,9.70
2023-01-29T13:28:45.168Z,9.10
2023-01-29T13:31:26.822Z,9.38
2023-01-29T13:33:59.997Z,9.02
2023-01-29T13:36:29.774Z,8.77
2023-01-29T13:39:02.580Z,8.77
2023-01-29T13:41:36.909Z,8.40
2023-01-29T13:44:07.921Z,8.02
2023-01-29T13:46:39.297Z,8.48
2023-01-29T13:49:22.072Z,8.02
2023-01-29T13:51:48.726Z,8.38
2023-01-29T13:54:21.301Z,9.23
2023-01-29T13:57:00.249Z,8.50
2023-01-29T13:59:51.754Z,8.93
2023-01-29T14:02:24.453Z,8.07
2023-01-29T14:04:51.379Z,8.50
2023-01-29T14:07:48.398Z,8.27
2023-01-29T14:10:17.170Z,8.10
2023-01-29T14:12:53.007Z,8.57
2023-01-29T14:15:35.261Z,8.30
2023-01-29T14:18:15.436Z,8.05
2023-01-29T14:20:52.921Z,8.50
2023-01-29T14:23:37.104Z,8.68
2023-01-29T14:26:06.308Z,9.30
2023-01-29T14:28:35.111Z,8.57
2023-01-29T14:31:03.316Z,8.50
2023-01-29T14:33:35.149Z,9.18
2023-01-29T14:36:06.309Z,8.93
2023-01-29T14:38:33.788Z,9.07
2023-01-29T14:41:09.118Z,7.72
2023-01-29T14:43:37.116Z,8.27
2023-01-29T14:46:42.182Z,9.05
2023-01-29T14:49:08.886Z,8.13
2023-01-29T14:51:38.542Z,8.85
2023-01-29T14:56:35.957Z,9.13
2023-01-29T15:01:47.021Z,8.95
2023-01-29T15:04:20.350Z,9.13
2023-01-29T15:06:50.264Z,8.27
2023-01-29T15:09:36.418Z,9.45
2023-01-29T15:12:11.234Z,8.52
2023-01-29T15:14:46.334Z,8.75
2023-01-29T15:17:21.954Z,9.10
2023-01-29T15:19:49.189Z,8.38
2023-01-29T15:22:17.331Z,8.93
2023-01-29T15:24:45.775Z,9.13
2023-01-29T15:27:15.233Z,8.90
2023-01-29T15:29:47.392Z,8.65
2023-01-29T15:32:21.500Z,8.75
2023-01-29T15:34:49.126Z,9.18
2023-01-29T15:37:34.477Z,8.70
2023-01-29T15:40:01.870Z,9.50
2023-01-29T15:42:29.419Z,8.98
2023-01-29T15:44:57.436Z,8.55
2023-01-29T15:47:28.622Z,9.55
2023-01-29T15:49:55.555Z,9.60
2023-01-29T15:52:26.052Z,9.85
2023-01-29T15:54:54.979Z,9.27
2023-01-29T15:57:27.668Z,10.15
2023-01-29T15:59:56.987Z,9.60
2023-01-29T16:02:36.714Z,9.40
2023-01-29T16:05:05.381Z,10.10
2023-01-29T16:07:32.419Z,9.50
2023-01-29T16:10:00.336Z,9.27
2023-01-29T16:12:27.928Z,9.48
2023-01-29T16:14:55.965Z,10.27
2023-01-29T16:17:27.438Z,9.80
2023-01-29T16:19:59.591Z,9.93
2023-01-29T16:22:29.295Z,9.95
2023-01-29T16:27:25.101Z,9.70
2023-01-29T16:29:51.959Z,10.00
2023-01-29T16:32:20.285Z,8.88
2023-01-29T16:34:48.972Z,8.90
2023-01-29T16:37:22.979Z,9.60
2023-01-29T16:39:50.817Z,8.23
2023-01-29T16:42:26.401Z,8.13
2023-01-29T16:44:56.633Z,8.63
2023-01-29T16:47:29.482Z,8.82
2023-01-29T16:49:57.375Z,8.13
2023-01-29T16:52:27.736Z,8.40
2023-01-29T16:55:14.264Z,8.23
2023-01-29T16:57:41.672Z,8.15
2023-01-29T17:00:18.946Z,9.65
2023-01-29T17:02:45.714Z,9.55
2023-01-29T17:05:21.344Z,8.93
2023-01-29T17:07:50.150Z,8.23
2023-01-29T17:10:18.428Z,9.33
2023-01-29T17:12:51.552Z,9.35
2023-01-29T17:15:31.570Z,8.77
2023-01-29T17:17:58.285Z,9.13
2023-01-29T17:20:26.875Z,8.90
2023-01-29T17:22:54.954Z,10.00
2023-01-29T17:25:21.793Z,9.48
2023-01-29T17:27:48.420Z,9.32
2023-01-29T17:30:16.728Z,9.70
2023-01-29T17:32:45.155Z,9.52
2023-01-29T17:35:15.488Z,9.93
2023-01-29T17:37:42.332Z,10.13
2023-01-29T17:40:22.955Z,10.27
2023-01-29T17:42:49.648Z,9.82
2023-01-29T17:45:16.701Z,10.80
2023-01-29T17:47:43.501Z,8.70
2023-01-29T17:50:18.915Z,9.13
2023-01-29T17:52:45.554Z,9.38
2023-01-29T17:55:13.710Z,8.90
2023-01-29T17:57:40.478Z,9.75
2023-01-29T18:00:16.315Z,10.60
2023-01-29T18:02:43.054Z,11.60
2023-01-29T18:05:10.136Z,11.50
2023-01-29T18:07:37.794Z,12.10
2023-01-29T18:10:05.240Z,12.02
2023-01-29T18:12:33.273Z,12.82
2023-01-29T18:14:59.870Z,13.75
2023-01-29T18:17:26.708Z,12.98
2023-01-29T18:19:53.399Z,13.05
2023-01-29T18:22:20.129Z,11.50
2023-01-29T18:24:46.819Z,11.38
2023-01-29T18:27:13.719Z,11.27
2023-01-29T18:29:41.947Z,11.95
2023-01-29T18:32:08.776Z,10.98
2023-01-29T18:34:35.393Z,11.40
2023-01-29T18:37:01.969Z,11.52
2023-01-29T18:39:28.689Z,12.07
2023-01-29T18:41:55.398Z,11.73
2023-01-29T18:44:22.147Z,11.82
2023-01-29T18:46:50.192Z,11.82
2023-01-29T18:49:16.844Z,11.02
2023-01-29T18:51:43.511Z,11.25
2023-01-29T18:54:11.567Z,11.82
2023-01-29T18:56:38.252Z,12.50
2023-01-29T18:59:24.983Z,12.23
2023-01-29T19:01:53.254Z,12.50
2023-01-29T19:04:23.304Z,12.93
2023-01-29T19:06:49.937Z,12.40
2023-01-29T19:09:16.615Z,12.65
2023-01-29T19:11:43.291Z,13.00
2023-01-29T19:14:09.998Z,12.82
2023-01-29T19:16:36.691Z,14.02
2023-01-29T19:19:04.803Z,14.35
2023-01-29T19:21:31.487Z,13.98
2023-01-29T19:23:58.116Z,13.23
2023-01-29T19:26:24.824Z,13.57
2023-01-29T19:28:51.457Z,13.40
2023-01-29T19:31:18.202Z,14.30
2023-01-29T19:33:44.985Z,16.25
2023-01-29T19:36:12.991Z,18.23
2023-01-29T19:38:39.632Z,18.17
2023-01-29T19:41:06.348Z,19.65
2023-01-29T19:43:33.295Z,19.38
2023-01-29T19:46:01.606Z,17.15
2023-01-29T19:48:28.848Z,16.42
2023-01-29T19:51:04.104Z,16.27
2023-01-29T19:53:36.257Z,15.85
2023-01-29T19:58:31.667Z,15.13
2023-01-29T20:01:00.619Z,16.05
2023-01-29T20:03:29.131Z,16.23
2023-01-29T20:06:01.071Z,16.52
2023-01-29T20:08:27.981Z,16.55
2023-01-29T20:10:56.180Z,15.98
2023-01-29T20:13:23.517Z,16.33
2023-01-29T20:15:51.772Z,16.38
2023-01-29T20:18:19.646Z,16.13
2023-01-29T20:20:55.004Z,15.90
2023-01-29T20:23:36.749Z,16.60
2023-01-29T20:26:08.079Z,15.35
2023-01-29T20:28:34.978Z,16.40
2023-01-29T20:31:02.532Z,16.27
2023-01-29T20:33:29.600Z,16.23
2023-01-29T20:35:57.763Z,16.55
2023-01-29T20:38:27.719Z,16.23
2023-01-29T20:40:57.765Z,16.23
2023-01-29T20:43:25.775Z,16.80
2023-01-29T20:45:52.393Z,16.50
2023-01-29T20:48:19.086Z,17.08
2023-01-29T20:50:45.851Z,18.10
2023-01-29T20:53:12.470Z,21.52
2023-01-29T20:55:39.259Z,24.08
2023-01-29T20:58:06.807Z,23.45
2023-01-29T21:00:35.202Z,21.40
2023-01-29T21:03:02.172Z,23.30
2023-01-29T21:05:29.034Z,25.60
2023-01-29T21:07:55.847Z,25.38
2023-01-29T21:10:22.585Z,24.15
2023-01-29T21:12:49.411Z,21.98
2023-01-29T21:15:16.155Z,19.33
2023-01-29T21:17:44.189Z,20.48
2023-01-29T21:20:11.962Z,23.50
2023-01-29T21:22:38.725Z,26.70
2023-01-29T21:25:06.374Z,27.48
2023-01-29T21:27:33.325Z,30.80
2023-01-29T21:30:00.210Z,30.75
2023-01-29T21:32:27.114Z,28.35
2023-01-29T21:34:55.719Z,27.70
2023-01-29T21:39:49.254Z,24.58
2023-01-29T21:42:16.129Z,24.75
2023-01-29T21:44:42.867Z,25.50
2023-01-29T21:47:09.766Z,25.25
2023-01-29T21:49:36.550Z,24.17
2023-01-29T21:52:04.907Z,21.63
2023-01-29T21:54:31.660Z,22.65
2023-01-29T21:56:59.050Z,20.92
2023-01-29T21:59:26.308Z,21.83
2023-01-29T22:01:53.199Z,21.25
2023-01-29T22:04:20.053Z,21.75
2023-01-29T22:06:46.896Z,21.95
2023-01-29T22:09:16.030Z,20.38
2023-01-29T22:11:43.098Z,21.30
2023-01-29T22:14:11.246Z,22.00
2023-01-29T22:16:38.358Z,22.20
2023-01-29T22:19:05.090Z,21.15
2023-01-29T22:21:32.658Z,22.52
2023-01-29T22:24:00.601Z,22.13
2023-01-29T22:26:28.753Z,21.13
2023-01-29T22:28:55.422Z,22.75
2023-01-29T22:31:22.379Z,21.63
2023-01-29T22:33:49.101Z,21.50
2023-01-29T22:36:15.781Z,20.90
2023-01-29T22:38:42.741Z,21.90
2023-01-29T22:41:09.689Z,22.45
2023-01-29T22:43:37.711Z,21.98
2023-01-29T22:46:07.539Z,22.02
2023-01-29T22:48:34.250Z,23.65
2023-01-29T22:51:00.916Z,23.05
2023-01-29T22:53:27.701Z,22.67
2023-01-29T22:55:54.739Z,23.63
2023-01-29T22:58:21.480Z,21.58
2023-01-29T23:00:51.390Z,20.13
2023-01-29T23:03:18.177Z,17.95
2023-01-29T23:05:44.799Z,18.27
2023-01-29T23:08:11.487Z,16.77
2023-01-29T23:10:38.282Z,16.10
2023-01-29T23:13:04.931Z,16.52
2023-01-29T23:15:31.625Z,16.65
2023-01-29T23:17:59.709Z,17.73
2023-01-29T23:20:26.389Z,17.20
2023-01-29T23:22:53.003Z,18.17
2023-01-29T23:25:19.660Z,17.38
2023-01-29T23:27:46.303Z,17.58
2023-01-29T23:30:13.717Z,16.83
2023-01-29T23:32:40.466Z,17.60
2023-01-29T23:35:09.312Z,17.60
2023-01-29T23:37:35.952Z,19.03
2023-01-29T23:40:02.571Z,18.55
2023-01-29T23:42:29.327Z,18.80
2023-01-29T23:44:55.957Z,18.02
2023-01-29T23:47:22.590Z,20.50
2023-01-29T23:49:49.236Z,21.08
2023-01-29T23:52:17.294Z,19.70
2023-01-29T23:54:43.951Z,20.20
2023-01-29T23:57:10.611Z,19.88
2023-01-29T23:59:37.314Z,18.83
